Time;durP1;ratioP1;P1;durP2;ratioP2;P2;SDS_P1;SDS_P2;PMS_P1;PMS_P2;Temp;Humidity;BMP_temperature;BMP_pressure;BME280_temperature;BME280_humidity;BME280_pressure;Samples;Min_cycle;Max_cycle;Signal;HPM_P1;HPM_P2
2022/07/03 00:01:16;;;;;;;;;1.00;1.00;;;;;-146.44;100.00;58906.56;5094278;27;45618;-60
2022/07/03 00:03:41;;;;;;;;;1.00;1.00;;;;;-146.44;100.00;58906.56;5095216;27;45459;-59
2022/07/03 00:06:07;;;;;;;;;1.00;1.00;;;;;-146.44;100.00;58906.56;5095197;27;45517;-59
2022/07/03 00:08:32;;;;;;;;;1.00;1.00;;;;;-146.44;100.00;58906.56;5093799;27;46183;-58
2022/07/03 00:10:57;;;;;;;;;1.00;1.00;;;;;-146.44;100.00;58906.56;5095388;27;45518;-59
2022/07/03 00:13:23;;;;;;;;;37.33;32.67;;;;;-146.44;100.00;58906.56;5094615;27;45493;-58
2022/07/03 00:15:48;;;;;;;;;32.00;30.00;;;;;-146.44;100.00;58906.56;5094571;27;45584;-57
2022/07/03 00:18:13;;;;;;;;;8.25;7.75;;;;;-146.44;100.00;58906.56;5087601;27;46207;-56
2022/07/03 00:20:48;;;;;;;;;1.00;1.00;;;;;-146.44;100.00;58906.56;5095194;27;45411;-56
2022/07/03 00:23:16;;;;;;;;;2.25;2.25;;;;;-146.44;100.00;58906.56;5095135;27;45623;-56
2022/07/03 00:25:43;;;;;;;;;2.00;2.00;;;;;-146.44;100.00;58906.56;5095263;27;45501;-56
2022/07/03 00:28:08;;;;;;;;;1.00;1.00;;;;;-146.44;100.00;58906.56;5078368;27;46535;-56
2022/07/03 00:30:34;;;;;;;;;1.50;1.50;;;;;-146.44;100.00;58906.56;5074519;28;45436;-56
2022/07/03 00:33:04;;;;;;;;;2.00;2.00;;;;;-146.44;100.00;58906.56;5074641;28;45517;-57
2022/07/03 00:35:32;;;;;;;;;2.00;2.00;;;;;-146.44;100.00;58906.56;5074924;27;45441;-57
2022/07/03 00:37:58;;;;;;;;;1.75;1.75;;;;;-146.44;100.00;58906.56;5073817;28;45486;-56
2022/07/03 00:40:24;;;;;;;;;2.25;2.25;;;;;-146.44;100.00;58906.56;5082586;27;45403;-57
2022/07/03 00:42:53;;;;;;;;;1.00;1.00;;;;;-146.44;100.00;58906.56;5094964;27;45500;-57
2022/07/03 00:45:20;;;;;;;;;2.00;2.00;;;;;-146.44;100.00;58906.56;5093472;27;45621;-57
2022/07/03 00:47:47;;;;;;;;;3.00;3.00;;;;;-146.44;100.00;58906.56;5092391;27;45379;-57
2022/07/03 00:50:13;;;;;;;;;1.50;1.50;;;;;-146.44;100.00;58906.56;5077516;27;45503;-57
2022/07/03 00:52:45;;;;;;;;;1.00;1.00;;;;;-146.44;100.00;58906.56;5074605;28;45510;-57
2022/07/03 00:55:15;;;;;;;;;0.75;0.75;;;;;-146.44;100.00;58906.56;5091593;27;45464;-57
2022/07/03 00:57:45;;;;;;;;;0.75;0.75;;;;;-146.44;100.00;58906.56;5089924;27;45512;-58
2022/07/03 01:00:12;;;;;;;;;0.00;0.00;;;;;-146.44;100.00;58906.56;5076543;27;45959;-57
2022/07/03 01:02:43;;;;;;;;;1.00;1.00;;;;;-146.44;100.00;58906.56;5077696;27;45492;-57
2022/07/03 01:05:15;;;;;;;;;3.50;2.00;;;;;-146.44;100.00;58906.56;5094687;27;45420;-57
2022/07/03 01:07:51;;;;;;;;;0.50;0.50;;;;;-146.44;100.00;58906.56;5087830;27;46169;-57
2022/07/03 01:10:35;;;;;;;;;2.00;2.00;;;;;-146.44;100.00;58906.56;5074368;28;45493;-56
2022/07/03 01:13:13;;;;;;;;;2.50;2.50;;;;;-146.44;100.00;58906.56;5094705;27;45486;-56
2022/07/03 01:15:57;;;;;;;;;1.75;1.75;;;;;-146.44;100.00;58906.56;5094648;27;45534;-57
2022/07/03 01:18:40;;;;;;;;;3.00;2.00;;;;;-146.44;100.00;58906.56;5095296;27;45561;-58
2022/07/03 01:21:19;;;;;;;;;1.00;1.00;;;;;-146.44;100.00;58906.56;5059269;28;45503;-57
2022/07/03 01:24:14;;;;;;;;;1.75;0.00;;;;;-146.44;100.00;58906.56;5087708;27;45566;-56
2022/07/03 01:26:41;;;;;;;;;1.00;1.00;;;;;-146.44;100.00;58906.56;5098235;27;45486;-56
2022/07/03 01:29:10;;;;;;;;;0.50;0.50;;;;;-146.44;100.00;58906.56;5096304;27;45679;-58
2022/07/03 01:31:39;;;;;;;;;1.00;1.00;;;;;-146.44;100.00;58906.56;5095091;27;45532;-56
2022/07/03 01:34:13;;;;;;;;;1.00;0.00;;;;;-146.44;100.00;58906.56;5087510;27;45473;-58
2022/07/03 01:36:41;;;;;;;;;0.00;0.00;;;;;-146.44;100.00;58906.56;5084600;27;45477;-57
2022/07/03 01:39:10;;;;;;;;;2.00;1.00;;;;;-146.44;100.00;58906.56;5096788;27;46560;-57
2022/07/03 01:41:37;;;;;;;;;2.00;1.00;;;;;-146.44;100.00;58906.56;5097688;27;45492;-56
2022/07/03 01:44:03;;;;;;;;;1.00;1.00;;;;;-146.44;100.00;58906.56;5096532;27;45574;-56
2022/07/03 01:46:31;;;;;;;;;0.00;0.00;;;;;-146.44;100.00;58906.56;5094026;27;45679;-56
2022/07/03 01:48:58;;;;;;;;;1.00;1.00;;;;;-146.44;100.00;58906.56;5079130;27;46367;-56
2022/07/03 01:51:25;;;;;;;;;1.75;1.00;;;;;-146.44;100.00;58906.56;5081616;27;45387;-58
2022/07/03 01:53:57;;;;;;;;;1.00;1.00;;;;;-146.44;100.00;58906.56;5097954;27;45466;-56
2022/07/03 01:56:24;;;;;;;;;0.00;0.00;;;;;-146.44;100.00;58906.56;5080755;27;45517;-56
2022/07/03 01:58:51;;;;;;;;;0.25;0.25;;;;;-146.44;100.00;58906.56;5098217;27;45692;-57
2022/07/03 02:01:38;;;;;;;;;0.00;0.00;;;;;-146.44;100.00;58906.56;5079674;27;45595;-56
2022/07/03 02:04:25;;;;;;;;;0.00;0.00;;;;;-146.44;100.00;58906.56;5087796;27;45465;-56
2022/07/03 02:07:20;;;;;;;;;0.50;0.50;;;;;-146.44;100.00;58906.56;5098060;27;45397;-57
2022/07/03 02:10:15;;;;;;;;;1.00;1.00;;;;;-146.44;100.00;58906.56;5096293;27;46293;-56
2022/07/03 02:13:02;;;;;;;;;0.00;0.00;;;;;-146.44;100.00;58906.56;5096614;27;45498;-57
2022/07/03 02:15:32;;;;;;;;;1.00;1.00;;;;;-146.44;100.00;58906.56;5095728;27;45474;-56
2022/07/03 02:18:03;;;;;;;;;0.25;0.25;;;;;-146.44;100.00;58906.56;5097332;27;45449;-56
2022/07/03 02:20:35;;;;;;;;;0.00;0.00;;;;;-146.44;100.00;58906.56;5096097;27;45709;-57
2022/07/03 02:23:03;;;;;;;;;1.00;1.00;;;;;-146.44;100.00;58906.56;5097282;27;45517;-57
2022/07/03 02:25:41;;;;;;;;;1.75;1.00;;;;;-146.44;100.00;58906.56;5096240;27;45379;-57
2022/07/03 02:28:24;;;;;;;;;0.25;0.25;;;;;-146.44;100.00;58906.56;5095830;27;45533;-56
2022/07/03 02:30:55;;;;;;;;;1.00;1.00;;;;;-146.44;100.00;58906.56;5095877;27;45492;-57
2022/07/03 02:33:26;;;;;;;;;0.25;0.25;;;;;-146.44;100.00;58906.56;5092577;27;45390;-56
2022/07/03 02:35:54;;;;;;;;;1.00;1.00;;;;;-146.44;100.00;58906.56;5077608;27;45540;-57
2022/07/03 02:38:21;;;;;;;;;2.00;1.00;;;;;-146.44;100.00;58906.56;5097087;27;45618;-57
2022/07/03 02:41:03;;;;;;;;;1.00;1.00;;;;;-146.44;100.00;58906.56;5095148;27;45493;-57
2022/07/03 02:43:52;;;;;;;;;1.00;1.00;;;;;-146.44;100.00;58906.56;5096484;27;46083;-56
2022/07/03 02:46:49;;;;;;;;;1.00;1.00;;;;;-146.44;100.00;58906.56;5096724;27;45405;-57
2022/07/03 02:49:48;;;;;;;;;1.00;1.00;;;;;-146.44;100.00;58906.56;5072748;28;45533;-57
2022/07/03 02:52:24;;;;;;;;;0.75;0.75;;;;;-146.44;100.00;58906.56;5076023;28;45533;-56
2022/07/03 02:54:52;;;;;;;;;0.00;0.00;;;;;-146.44;100.00;58906.56;5077037;27;45473;-56
2022/07/03 02:57:19;;;;;;;;;0.00;0.00;;;;;-146.44;100.00;58906.56;5076320;28;45539;-56
2022/07/03 03:00:00;;;;;;;;;0.25;0.25;;;;;-146.44;100.00;58906.56;5076491;28;45558;-56
2022/07/03 03:02:28;;;;;;;;;1.00;1.00;;;;;-146.44;100.00;58906.56;5075784;28;46235;-56
2022/07/03 03:05:07;;;;;;;;;1.00;1.00;;;;;-146.44;100.00;58906.56;5075852;28;45423;-57
2022/07/03 03:08:03;;;;;;;;;1.00;1.00;;;;;-146.44;100.00;58906.56;5096715;27;45492;-56
2022/07/03 03:10:28;;;;;;;;;0.00;0.00;;;;;-146.44;100.00;58906.56;5094060;27;45595;-57
2022/07/03 03:13:14;;;;;;;;;2.00;2.00;;;;;-146.44;100.00;58906.56;5095480;27;45471;-56
2022/07/03 03:15:47;;;;;;;;;2.00;2.00;;;;;-146.44;100.00;58906.56;5093678;27;45517;-56
2022/07/03 03:18:21;;;;;;;;;0.00;0.00;;;;;-146.44;100.00;58906.56;5095829;27;45518;-56
2022/07/03 03:20:49;;;;;;;;;2.00;2.00;;;;;-146.44;100.00;58906.56;5094615;27;45549;-57
2022/07/03 03:23:29;;;;;;;;;1.50;1.50;;;;;-146.44;100.00;58906.56;5095256;27;46121;-57
2022/07/03 03:25:55;;;;;;;;;1.25;1.25;;;;;-146.44;100.00;58906.56;5095589;27;45481;-57
2022/07/03 03:28:21;;;;;;;;;5.00;1.75;;;;;-146.44;100.00;58906.56;5095422;27;45591;-57
2022/07/03 03:30:48;;;;;;;;;2.00;1.25;;;;;-146.44;100.00;58906.56;5095284;27;45670;-57
2022/07/03 03:33:14;;;;;;;;;1.75;1.75;;;;;-146.44;100.00;58906.56;5095407;27;45570;-57
2022/07/03 03:35:39;;;;;;;;;2.00;2.00;;;;;-146.44;100.00;58906.56;5096028;27;45518;-57
2022/07/03 03:38:05;;;;;;;;;1.00;1.00;;;;;-146.44;100.00;58906.56;5096223;27;45458;-57
2022/07/03 03:40:32;;;;;;;;;1.00;1.00;;;;;-146.44;100.00;58906.56;5094603;27;45560;-57
2022/07/03 03:42:58;;;;;;;;;1.75;1.75;;;;;-146.44;100.00;58906.56;5095614;27;45418;-57
2022/07/03 03:45:23;;;;;;;;;2.00;2.00;;;;;-146.44;100.00;58906.56;5094887;27;45648;-55
2022/07/03 03:47:48;;;;;;;;;1.75;1.75;;;;;-146.44;100.00;58906.56;5095913;27;45497;-57
2022/07/03 03:50:14;;;;;;;;;2.00;2.00;;;;;-146.44;100.00;58906.56;5095436;27;45679;-57
2022/07/03 03:52:39;;;;;;;;;2.00;2.00;;;;;-146.44;100.00;58906.56;5094246;27;46477;-57
2022/07/03 03:55:05;;;;;;;;;1.00;1.00;;;;;-146.44;100.00;58906.56;5095548;27;45505;-57
2022/07/03 03:57:31;;;;;;;;;1.50;1.00;;;;;-146.44;100.00;58906.56;5094663;27;45521;-57
2022/07/03 03:59:57;;;;;;;;;0.00;0.00;;;;;-146.44;100.00;58906.56;5095771;27;45551;-56
2022/07/03 04:02:23;;;;;;;;;2.00;1.00;;;;;-146.44;100.00;58906.56;5093050;27;46192;-56
2022/07/03 04:04:48;;;;;;;;;1.00;1.00;;;;;-146.44;100.00;58906.56;5094082;27;45616;-57
2022/07/03 04:07:14;;;;;;;;;2.00;2.00;;;;;-146.44;100.00;58906.56;5083334;27;45463;-56
2022/07/03 04:09:39;;;;;;;;;2.00;2.00;;;;;-146.44;100.00;58906.56;5093899;27;45459;-57
2022/07/03 04:12:05;;;;;;;;;2.00;2.00;;;;;-146.44;100.00;58906.56;5079157;27;46372;-57
2022/07/03 04:14:31;;;;;;;;;1.67;1.67;;;;;-146.44;100.00;58906.56;5075172;28;45744;-56
2022/07/03 04:16:56;;;;;;;;;1.00;1.00;;;;;-146.44;100.00;58906.56;5090011;27;45526;-57
2022/07/03 04:19:22;;;;;;;;;1.25;1.25;;;;;-146.44;100.00;58906.56;5095520;27;45427;-57
2022/07/03 04:21:49;;;;;;;;;1.75;1.75;;;;;-146.44;100.00;58906.56;5094516;27;45508;-56
2022/07/03 04:24:14;;;;;;;;;1.25;0.25;;;;;-146.44;100.00;58906.56;5056984;28;45533;-57
2022/07/03 04:26:40;;;;;;;;;2.00;2.00;;;;;-146.44;100.00;58906.56;5075322;28;45736;-56
2022/07/03 04:29:05;;;;;;;;;1.00;1.00;;;;;-146.44;100.00;58906.56;5090600;27;45694;-57
2022/07/03 04:31:30;;;;;;;;;3.00;3.00;;;;;-146.44;100.00;58906.56;5076714;27;45490;-56
2022/07/03 04:33:56;;;;;;;;;1.67;1.67;;;;;-146.44;100.00;58906.56;5093362;27;45450;-56
2022/07/03 04:36:21;;;;;;;;;1.75;1.75;;;;;-146.44;100.00;58906.56;5095221;27;45493;-57
2022/07/03 04:38:46;;;;;;;;;1.75;1.75;;;;;-146.44;100.00;58906.56;5093716;27;45731;-57
2022/07/03 04:41:12;;;;;;;;;3.67;3.67;;;;;-146.44;100.00;58906.56;5095077;27;46107;-57
2022/07/03 04:43:37;;;;;;;;;2.50;2.50;;;;;-146.44;100.00;58906.56;5094954;27;45457;-57
2022/07/03 04:46:03;;;;;;;;;1.00;1.00;;;;;-146.44;100.00;58906.56;5069880;27;45562;-57
2022/07/03 04:48:29;;;;;;;;;1.00;1.00;;;;;-146.44;100.00;58906.56;5076621;27;45511;-57
2022/07/03 04:50:55;;;;;;;;;1.00;1.00;;;;;-146.44;100.00;58906.56;5094834;27;45513;-57
2022/07/03 04:53:20;;;;;;;;;1.00;1.00;;;;;-146.44;100.00;58906.56;5093537;27;45502;-57
2022/07/03 04:55:45;;;;;;;;;1.00;1.00;;;;;-146.44;100.00;58906.56;5095337;27;45466;-57
2022/07/03 04:58:11;;;;;;;;;0.33;0.33;;;;;-146.44;100.00;58906.56;5088956;27;45640;-57
2022/07/03 05:00:36;;;;;;;;;0.00;0.00;;;;;-146.44;100.00;58906.56;5084312;27;45578;-57
2022/07/03 05:03:02;;;;;;;;;1.00;1.00;;;;;-146.44;100.00;58906.56;5095109;27;45448;-57
2022/07/03 05:05:27;;;;;;;;;2.00;2.00;;;;;-146.44;100.00;58906.56;5095061;27;45413;-57
2022/07/03 05:07:52;;;;;;;;;1.00;1.00;;;;;-146.44;100.00;58906.56;5094549;27;45590;-56
2022/07/03 05:10:18;;;;;;;;;0.25;0.25;;;;;-146.44;100.00;58906.56;5094823;27;45367;-57
2022/07/03 05:12:43;;;;;;;;;1.33;1.33;;;;;-146.44;100.00;58906.56;5094765;27;45508;-56
2022/07/03 05:15:09;;;;;;;;;1.00;1.00;;;;;-146.44;100.00;58906.56;5092485;27;45576;-57
2022/07/03 05:17:34;;;;;;;;;3.00;3.00;;;;;-146.44;100.00;58906.56;5072568;27;45554;-57
2022/07/03 05:22:45;;;;;;;;;1.50;1.50;;;;;-146.44;100.00;58906.56;5093682;27;45505;-57
2022/07/03 05:25:10;;;;;;;;;1.67;1.67;;;;;-146.44;100.00;58906.56;5093678;27;45498;-57
2022/07/03 05:27:37;;;;;;;;;1.25;1.25;;;;;-146.44;100.00;58906.56;5094734;27;45492;-56
2022/07/03 05:30:03;;;;;;;;;1.00;1.00;;;;;-146.44;100.00;58906.56;5090131;27;45543;-57
2022/07/03 05:32:28;;;;;;;;;1.00;1.00;;;;;-146.44;100.00;58906.56;5058825;28;45524;-57
2022/07/03 05:34:54;;;;;;;;;1.00;1.00;;;;;-146.44;100.00;58906.56;5074229;28;45392;-56
2022/07/03 05:37:19;;;;;;;;;1.00;1.00;;;;;-146.44;100.00;58906.56;5080347;27;45652;-57
2022/07/03 05:39:44;;;;;;;;;1.00;1.00;;;;;-146.44;100.00;58906.56;5094125;27;46182;-56
2022/07/03 05:42:10;;;;;;;;;2.00;1.00;;;;;-146.44;100.00;58906.56;5085201;27;46464;-56
2022/07/03 05:44:35;;;;;;;;;1.00;1.00;;;;;-146.44;100.00;58906.56;5073856;28;45495;-55
2022/07/03 05:47:01;;;;;;;;;1.50;1.50;;;;;-146.44;100.00;58906.56;5077648;27;49015;-56
2022/07/03 05:49:26;;;;;;;;;2.00;2.00;;;;;-146.44;100.00;58906.56;5094254;27;46475;-57
2022/07/03 05:51:51;;;;;;;;;2.00;2.00;;;;;-146.44;100.00;58906.56;5092161;27;45505;-57
2022/07/03 05:54:17;;;;;;;;;1.75;1.75;;;;;-146.44;100.00;58906.56;5094399;27;45434;-57
2022/07/03 05:56:42;;;;;;;;;1.00;1.00;;;;;-146.44;100.00;58906.56;5093327;27;45643;-58
2022/07/03 05:59:07;;;;;;;;;1.00;1.00;;;;;-146.44;100.00;58906.56;5092716;27;46513;-57
2022/07/03 06:01:33;;;;;;;;;1.25;1.00;;;;;-146.44;100.00;58906.56;5093331;27;45485;-57
2022/07/03 06:03:58;;;;;;;;;2.25;1.25;;;;;-146.44;100.00;58906.56;5093557;27;45347;-57
2022/07/03 06:06:23;;;;;;;;;1.00;1.00;;;;;-146.44;100.00;58906.56;5095572;27;45637;-57
2022/07/03 06:08:49;;;;;;;;;1.00;1.00;;;;;-146.44;100.00;58906.56;5093978;27;46259;-57
2022/07/03 06:11:14;;;;;;;;;2.25;1.75;;;;;-146.44;100.00;58906.56;5095252;27;45440;-57
2022/07/03 06:13:39;;;;;;;;;2.00;2.00;;;;;-146.44;100.00;58906.56;5078826;27;45553;-56
2022/07/03 06:16:05;;;;;;;;;1.75;1.75;;;;;-146.44;100.00;58906.56;5074918;27;45541;-55
2022/07/03 06:18:30;;;;;;;;;1.00;1.00;;;;;-146.44;100.00;58906.56;5097405;27;46455;-55
2022/07/03 06:20:55;;;;;;;;;3.00;2.00;;;;;-146.44;100.00;58906.56;5097273;27;45560;-56
2022/07/03 06:23:21;;;;;;;;;3.25;3.25;;;;;-146.44;100.00;58906.56;5095244;27;45439;-56
2022/07/03 06:25:46;;;;;;;;;1.25;0.75;;;;;-146.44;100.00;58906.56;5095079;27;45640;-56
2022/07/03 06:28:11;;;;;;;;;1.67;1.67;;;;;-146.44;100.00;58906.56;5097213;27;45477;-56
2022/07/03 06:30:37;;;;;;;;;1.25;1.25;;;;;-146.44;100.00;58906.56;5094661;27;45431;-56
2022/07/03 06:33:02;;;;;;;;;2.00;2.00;;;;;-146.44;100.00;58906.56;5093940;27;45719;-56
2022/07/03 06:35:28;;;;;;;;;2.00;2.00;;;;;-146.44;100.00;58906.56;5096184;27;45546;-57
2022/07/03 06:37:53;;;;;;;;;2.00;2.00;;;;;-146.44;100.00;58906.56;5096170;27;46120;-57
2022/07/03 06:40:18;;;;;;;;;1.25;1.00;;;;;-146.44;100.00;58906.56;5097178;27;45521;-56
2022/07/03 06:42:44;;;;;;;;;2.00;2.00;;;;;-146.44;100.00;58906.56;5093988;27;45472;-57
2022/07/03 06:45:09;;;;;;;;;1.00;1.00;;;;;-146.44;100.00;58906.56;5096913;27;45523;-56
2022/07/03 06:47:39;;;;;;;;;1.00;1.00;;;;;-146.44;100.00;58906.56;5097003;27;45537;-56
2022/07/03 06:50:06;;;;;;;;;2.00;2.00;;;;;-146.44;100.00;58906.56;5096855;27;45473;-56
2022/07/03 06:52:31;;;;;;;;;2.00;2.00;;;;;-146.44;100.00;58906.56;5095371;27;45481;-56
2022/07/03 06:54:57;;;;;;;;;2.00;2.00;;;;;-146.44;100.00;58906.56;5097241;27;45517;-56
2022/07/03 06:57:22;;;;;;;;;4.00;2.33;;;;;-146.44;100.00;58906.56;5095275;27;46212;-56
2022/07/03 06:59:48;;;;;;;;;2.00;2.00;;;;;-146.44;100.00;58906.56;5095167;27;45501;-56
2022/07/03 07:02:13;;;;;;;;;3.33;3.33;;;;;-146.44;100.00;58906.56;5095198;27;45808;-56
2022/07/03 07:04:39;;;;;;;;;5.33;4.33;;;;;-146.44;100.00;58906.56;5095777;27;45591;-56
2022/07/03 07:07:04;;;;;;;;;4.67;3.00;;;;;-146.44;100.00;58906.56;5093204;27;45635;-56
2022/07/03 07:09:30;;;;;;;;;4.33;4.00;;;;;-146.44;100.00;58906.56;5095297;27;45743;-57
2022/07/03 07:11:55;;;;;;;;;2.25;2.25;;;;;-146.44;100.00;58906.56;5095862;27;45403;-57
2022/07/03 07:14:20;;;;;;;;;5.00;5.00;;;;;-146.44;100.00;58906.56;5095486;27;45584;-56
2022/07/03 07:16:46;;;;;;;;;2.75;2.75;;;;;-146.44;100.00;58906.56;5075499;27;45778;-56
2022/07/03 07:19:11;;;;;;;;;4.00;4.00;;;;;-146.44;100.00;58906.56;5094929;27;45476;-57
2022/07/03 07:21:37;;;;;;;;;5.00;5.00;;;;;-146.44;100.00;58906.56;5094336;27;45549;-57
2022/07/03 07:24:03;;;;;;;;;3.00;2.00;;;;;-146.44;100.00;58906.56;5094143;27;45640;-56
2022/07/03 07:26:28;;;;;;;;;3.00;3.00;;;;;-146.44;100.00;58906.56;5076169;27;45523;-56
2022/07/03 07:28:53;;;;;;;;;2.00;2.00;;;;;-146.44;100.00;58906.56;5075986;28;45502;-56
2022/07/03 07:31:19;;;;;;;;;5.00;5.00;;;;;-146.44;100.00;58906.56;5083549;27;45884;-56
2022/07/03 07:33:44;;;;;;;;;3.25;3.25;;;;;-146.44;100.00;58906.56;5096468;27;45681;-55
2022/07/03 07:36:09;;;;;;;;;3.00;2.00;;;;;-146.44;100.00;58906.56;5081870;27;46189;-56
2022/07/03 07:38:35;;;;;;;;;4.00;4.00;;;;;-146.44;100.00;58906.56;5086699;27;45493;-56
2022/07/03 07:41:00;;;;;;;;;6.33;6.33;;;;;-146.44;100.00;58906.56;5096178;27;45487;-56
2022/07/03 07:43:25;;;;;;;;;3.33;3.33;;;;;-146.44;100.00;58906.56;5095436;27;50073;-56
2022/07/03 07:45:52;;;;;;;;;3.00;3.00;;;;;-146.44;100.00;58906.56;5089150;27;46610;-56
2022/07/03 07:48:18;;;;;;;;;3.00;3.00;;;;;-146.44;100.00;58906.56;5094863;27;45468;-57
2022/07/03 07:50:43;;;;;;;;;6.00;4.67;;;;;-146.44;100.00;58906.56;5094954;27;45490;-57
2022/07/03 07:53:08;;;;;;;;;4.67;4.67;;;;;-146.44;100.00;58906.56;5095886;27;45493;-57
2022/07/03 07:55:34;;;;;;;;;3.50;3.50;;;;;-146.44;100.00;58906.56;5094155;27;45514;-56
2022/07/03 07:57:59;;;;;;;;;4.00;4.00;;;;;-146.44;100.00;58906.56;5095951;27;45482;-57
2022/07/03 08:00:24;;;;;;;;;3.00;2.50;;;;;-146.44;100.00;58906.56;5095176;27;45425;-56
2022/07/03 08:05:37;;;;;;;;;4.00;4.00;;;;;-146.44;100.00;58906.56;5092871;27;45747;-56
2022/07/03 08:08:05;;;;;;;;;4.25;3.25;;;;;-146.44;100.00;58906.56;5095778;27;45427;-56
2022/07/03 08:10:34;;;;;;;;;3.00;3.00;;;;;-146.44;100.00;58906.56;5094770;27;45597;-57
2022/07/03 08:13:00;;;;;;;;;5.50;3.50;;;;;-146.44;100.00;58906.56;5094739;27;45551;-57
2022/07/03 08:15:25;;;;;;;;;3.00;3.00;;;;;-146.44;100.00;58906.56;5094411;27;46352;-56
2022/07/03 08:17:50;;;;;;;;;3.00;3.00;;;;;-146.44;100.00;58906.56;5077050;27;45432;-57
2022/07/03 08:20:16;;;;;;;;;3.00;3.00;;;;;-146.44;100.00;58906.56;5094296;27;45501;-59
2022/07/03 08:22:41;;;;;;;;;4.00;3.00;;;;;-146.44;100.00;58906.56;5077153;27;45650;-59
2022/07/03 08:25:06;;;;;;;;;6.00;4.00;;;;;-146.44;100.00;58906.56;5075576;27;46621;-60
2022/07/03 08:27:32;;;;;;;;;5.00;5.00;;;;;-146.44;100.00;58906.56;5092318;27;45504;-61
2022/07/03 08:29:57;;;;;;;;;4.00;4.00;;;;;-146.44;100.00;58906.56;5094463;27;45398;-62
2022/07/03 08:32:23;;;;;;;;;3.25;3.25;;;;;-146.44;100.00;58906.56;5095306;27;45435;-62
2022/07/03 08:34:48;;;;;;;;;1.75;1.75;;;;;-146.44;100.00;58906.56;5095563;27;45465;-60
2022/07/03 08:37:13;;;;;;;;;2.50;2.50;;;;;-146.44;100.00;58906.56;5092863;27;45583;-62
2022/07/03 08:39:38;;;;;;;;;2.75;2.75;;;;;-146.44;100.00;58906.56;5095222;27;45753;-60
2022/07/03 08:42:05;;;;;;;;;4.00;3.25;;;;;-146.44;100.00;58906.56;5094652;27;45658;-62
2022/07/03 08:44:32;;;;;;;;;2.00;2.00;;;;;-146.44;100.00;58906.56;5081875;27;47090;-62
2022/07/03 08:47:00;;;;;;;;;1.75;1.75;;;;;-146.44;100.00;58906.56;5090060;27;46251;-62
2022/07/03 08:49:27;;;;;;;;;3.75;2.75;;;;;-146.44;100.00;58906.56;5094660;27;45375;-61
2022/07/03 08:51:53;;;;;;;;;2.25;2.25;;;;;-146.44;100.00;58906.56;5093253;27;45476;-63
2022/07/03 08:54:19;;;;;;;;;3.00;2.75;;;;;-146.44;100.00;58906.56;5095388;27;45587;-62
2022/07/03 08:56:46;;;;;;;;;4.50;3.00;;;;;-146.44;100.00;58906.56;5090785;27;45454;-62
2022/07/03 08:59:12;;;;;;;;;2.75;2.75;;;;;-146.44;100.00;58906.56;5088727;27;45639;-57
2022/07/03 09:01:41;;;;;;;;;3.00;3.00;;;;;-146.44;100.00;58906.56;5083352;27;45556;-59
2022/07/03 09:04:10;;;;;;;;;1.75;1.75;;;;;-146.44;100.00;58906.56;5094391;27;46432;-60
2022/07/03 09:06:36;;;;;;;;;3.50;3.50;;;;;-146.44;100.00;58906.56;5076295;27;45693;-58
2022/07/03 09:09:02;;;;;;;;;2.75;2.75;;;;;-146.44;100.00;58906.56;5074158;27;45471;-59
2022/07/03 09:11:28;;;;;;;;;1.75;1.75;;;;;-146.44;100.00;58906.56;5074090;28;45579;-60
2022/07/03 09:13:53;;;;;;;;;1.75;1.75;;;;;-146.44;100.00;58906.56;5074032;28;45820;-58
2022/07/03 09:16:19;;;;;;;;;3.00;3.00;;;;;-146.44;100.00;58906.56;5073919;28;45584;-58
2022/07/03 09:18:45;;;;;;;;;2.50;2.00;;;;;-146.44;100.00;58906.56;5074216;28;45460;-58
2022/07/03 09:21:11;;;;;;;;;2.00;2.00;;;;;-146.44;100.00;58906.56;5073813;28;45567;-58
2022/07/03 09:23:41;;;;;;;;;2.00;2.00;;;;;-146.44;100.00;58906.56;5073427;27;45611;-58
2022/07/03 09:26:14;;;;;;;;;2.75;2.25;;;;;-146.44;100.00;58906.56;5077681;27;45800;-57
2022/07/03 09:28:51;;;;;;;;;3.25;3.25;;;;;-146.44;100.00;58906.56;5081455;27;45611;-58
2022/07/03 09:31:21;;;;;;;;;2.50;2.50;;;;;-146.44;100.00;58906.56;5082479;27;45608;-57
2022/07/03 09:34:04;;;;;;;;;4.50;3.00;;;;;-146.44;100.00;58906.56;5078977;27;46011;-58
2022/07/03 09:36:44;;;;;;;;;2.00;2.00;;;;;-146.44;100.00;58906.56;5074227;27;45595;-59
2022/07/03 09:39:30;;;;;;;;;3.25;3.25;;;;;-146.44;100.00;58906.56;5076482;27;46288;-58
2022/07/03 09:42:11;;;;;;;;;1.50;1.50;;;;;-146.44;100.00;58906.56;5081876;27;45696;-59
2022/07/03 09:44:37;;;;;;;;;2.75;2.75;;;;;-146.44;100.00;58906.56;5077489;27;45793;-57
2022/07/03 09:47:09;;;;;;;;;2.00;2.00;;;;;-146.44;100.00;58906.56;5087731;27;45568;-58
2022/07/03 09:49:54;;;;;;;;;1.75;1.75;;;;;-146.44;100.00;58906.56;5078427;27;45767;-58
2022/07/03 09:52:35;;;;;;;;;1.50;1.50;;;;;-146.44;100.00;58906.56;5081462;27;45588;-58
2022/07/03 09:55:13;;;;;;;;;2.25;2.25;;;;;-146.44;100.00;58906.56;5085048;27;45701;-59
2022/07/03 09:58:05;;;;;;;;;24.00;24.00;;;;;-146.44;100.00;58906.56;5097405;27;45559;-68
2022/07/03 10:00:36;;;;;;;;;2.50;2.00;;;;;-146.44;100.00;58906.56;5088042;27;45482;-72
2022/07/03 10:03:09;;;;;;;;;2.75;2.75;;;;;-146.44;100.00;58906.56;5094483;27;45614;-72
2022/07/03 10:05:52;;;;;;;;;4.75;4.75;;;;;-146.44;100.00;58906.56;5097281;27;45492;-71
2022/07/03 10:08:18;;;;;;;;;2.00;2.00;;;;;-146.44;100.00;58906.56;5092560;27;45524;-72
2022/07/03 10:10:48;;;;;;;;;3.25;2.00;;;;;-146.44;100.00;58906.56;5077459;28;45427;-72
2022/07/03 10:13:15;;;;;;;;;3.00;3.00;;;;;-146.44;100.00;58906.56;5094439;27;45608;-68
2022/07/03 10:15:42;;;;;;;;;3.00;3.00;;;;;-146.44;100.00;58906.56;5090119;27;45430;-70
2022/07/03 10:18:10;;;;;;;;;3.00;3.00;;;;;-146.44;100.00;58906.56;5077004;28;45479;-68
2022/07/03 10:20:39;;;;;;;;;3.00;3.00;;;;;-146.44;100.00;58906.56;5096495;27;45504;-66
2022/07/03 10:23:05;;;;;;;;;5.75;5.25;;;;;-146.44;100.00;58906.56;5088820;27;45576;-68
2022/07/03 10:25:31;;;;;;;;;119.75;97.50;;;;;-146.44;100.00;58906.56;5076816;28;45500;-68
2022/07/03 10:27:57;;;;;;;;;6.00;6.00;;;;;-146.44;100.00;58906.56;5058581;28;45443;-67
2022/07/03 10:30:24;;;;;;;;;5.75;5.75;;;;;-146.44;100.00;58906.56;5094772;27;45509;-68
2022/07/03 10:32:52;;;;;;;;;51.67;37.00;;;;;-146.44;100.00;58906.56;5072220;27;45670;-67
2022/07/03 10:35:33;;;;;;;;;13.33;12.00;;;;;-146.44;100.00;58906.56;5084735;27;47392;-70
2022/07/03 10:38:13;;;;;;;;;5.50;5.50;;;;;-146.44;100.00;58906.56;5095498;27;45392;-67
2022/07/03 10:46:24;;;;;;;;;4.50;4.50;;;;;-146.44;100.00;58906.56;5088193;27;46018;-70
2022/07/03 10:49:06;;;;;;;;;5.00;5.00;;;;;-146.44;100.00;58906.56;5087958;27;45497;-70
2022/07/03 10:51:52;;;;;;;;;5.00;5.00;;;;;-146.44;100.00;58906.56;5092932;27;45574;-70
2022/07/03 10:54:26;;;;;;;;;6.25;5.50;;;;;-146.44;100.00;58906.56;5066657;28;45484;-69
2022/07/03 10:56:58;;;;;;;;;4.00;4.00;;;;;-146.44;100.00;58906.56;5092747;27;46385;-71
2022/07/03 10:59:42;;;;;;;;;4.00;4.00;;;;;-146.44;100.00;58906.56;5097075;27;45415;-73
2022/07/03 11:02:23;;;;;;;;;18.67;17.33;;;;;-146.44;100.00;58906.56;5097898;27;45376;-73
2022/07/03 11:07:42;;;;;;;;;8.00;8.00;;;;;-146.44;100.00;58906.56;5096702;27;45444;-71
2022/07/03 11:10:13;;;;;;;;;17.33;17.33;;;;;-146.44;100.00;58906.56;5097476;27;45533;-72
2022/07/03 11:13:00;;;;;;;;;6.25;6.25;;;;;-146.44;100.00;58906.56;5096805;27;45495;-73
2022/07/03 11:15:33;;;;;;;;;4.00;4.00;;;;;-146.44;100.00;58906.56;5096961;27;45415;-73
2022/07/03 11:18:13;;;;;;;;;7.00;7.00;;;;;-146.44;100.00;58906.56;5096397;27;45517;-70
2022/07/03 11:20:42;;;;;;;;;14.67;11.00;;;;;-146.44;100.00;58906.56;5078097;27;45890;-72
2022/07/03 11:23:19;;;;;;;;;7.50;7.50;;;;;-146.44;100.00;58906.56;5096459;27;45453;-68
2022/07/03 11:25:47;;;;;;;;;10.00;8.50;;;;;-146.44;100.00;58906.56;5097453;27;45512;-63
2022/07/03 11:28:31;;;;;;;;;7.00;7.00;;;;;-146.44;100.00;58906.56;5096196;27;45439;-63
2022/07/03 11:33:55;;;;;;;;;7.00;5.75;;;;;-146.44;100.00;58906.56;5096479;27;45427;-64
2022/07/03 11:36:27;;;;;;;;;5.25;5.25;;;;;-146.44;100.00;58906.56;5096254;27;45489;-64